Grand Junction, CO (81501)

4:32 AM MDT on May 24, 2017 (GMT -0600)
Poplar Drive | | Change Station

Elev 4603 ft 39.08 °N, 108.58 °W | Updated 9 seconds ago

Clear
Clear
53.4 °F
Feels Like 53.4 °F
N
0.0
Wind Variable Wind from ESE
Gusts 0.0 mph

Today
High -- | Low -- °F
--% Chance of Precip.
Yesterday
High -- | Low -- °F
Precip. -- in
Pressure 29.88 in
Visibility 10.0 miles
Clouds Clear
Dew Point 30 °F
Humidity 40%
Rainfall 0.00 in
Snow Depth Not available.
5:54 AM 8:28 PM
Waning Crescent, 3% visible
METAR KGJT 240953Z AUTO 12010KT 10SM CLR 10/00 A3001 RMK AO2 SLP116 T01000000
Pressure 29.88 in
Visibility 10.0 miles
Clouds Clear
Dew Point 30 °F
Humidity 40%
Rainfall 0.00 in
Snow Depth Not available.
5:54 AM 8:28 PM
Waning Crescent, 3% visible
METAR KGJT 240953Z AUTO 12010KT 10SM CLR 10/00 A3001 RMK AO2 SLP116 T01000000

Get Severe Weather Alerts

Thanks for signing up!

Be on the lookout for a verification email in your inbox.

You'll start receiving the daily forecast at 6 AM.

×

10-Day Weather Forecast

Almanac

Astronomy

May. 24, 2017 Rise Set
Actual Time
Civil Twilight
Nautical Twilight
Astronomical Twilight
Moon
Length of Visible Light
Length of Day
Tomorrow will be .
, % of the Moon is Illuminated

Today's Extremes

State Highs State Lows

Community

WunderPhotos

Category 6

Welcome to Category 6. This is the collective home for Weather Underground's featured writeups by Dr. Jeff Masters (right), Bob Henson (left), Chris Burt, and other regular contributors.

Nearby

Air Quality

  Air Quality AQ Index Pollutant
Not available.

Snow Depth

Station Depth Elevation

Earthquake Activity

City Distance Mag. Time & Date
Minimum magnitude displayed is 2.5.

Coastal Water Temperatures

Place Temperature

Stations

Nearby Weather Stations

Station Location Temp. Windchill Dew Point Humidity Wind Precip. Elev Updated Type
                   

Watches & Warnings

There are currently no watches in effect.